< < Back
Terminal Aerodrome Forecast


Current Version              Previous Versions:   1  2  3  4  5  6  7  8  9  

Terminal Aerodrome Forecast

245
FTUS44 KOHX 271200 AAB
TAFCSV
TAF AMD
KCSV 271209Z 2712/2812 00000KT 4SM BR SKC
      TEMPO 2712/2713 1/2SM FG BKN001
     FM271400 03005KT P6SM SCT035 BKN200
     FM280000 00000KT P6SM SCT150
     FM280500 00000KT 5SM BR SCT150
     FM280800 00000KT 3SM BR SCT150
      TEMPO 2808/2812 1SM BR=

Latest METAR

056
SAUS70 KWBC 271500 RRC
MTRCSV
METAR KCSV 271453Z AUTO 00000KT 10SM FEW026 26/19 A3018 RMK AO2 SLP199
T02560189 51006


USA.gov is the U.S. government's official web portal to all federal, state and local government web resources and services.